sensor_id;sensor_type;location;lat;lon;timestamp;pressure;altitude;pressure_sealevel;temperature;humidity
6433;BME280;3249;42.690;23.260;2023-05-24T00:00:10;94090.56;;;11.03;100.00
6433;BME280;3249;42.690;23.260;2023-05-24T00:02:40;94090.69;;;11.08;100.00
6433;BME280;3249;42.690;23.260;2023-05-24T00:05:09;94081.69;;;10.87;100.00
6433;BME280;3249;42.690;23.260;2023-05-24T00:07:42;94084.69;;;10.84;100.00
6433;BME280;3249;42.690;23.260;2023-05-24T00:10:11;94090.22;;;10.88;100.00
6433;BME280;3249;42.690;23.260;2023-05-24T00:12:40;94061.34;;;10.97;100.00
6433;BME280;3249;42.690;23.260;2023-05-24T00:15:10;94090.78;;;11.24;100.00
6433;BME280;3249;42.690;23.260;2023-05-24T00:17:38;94093.59;;;11.34;100.00
6433;BME280;3249;42.690;23.260;2023-05-24T00:20:09;94090.78;;;11.36;100.00
6433;BME280;3249;42.690;23.260;2023-05-24T00:22:42;94086.31;;;11.43;100.00
6433;BME280;3249;42.690;23.260;2023-05-24T00:25:11;94082.50;;;11.34;100.00
6433;BME280;3249;42.690;23.260;2023-05-24T00:27:40;94081.72;;;11.10;100.00
6433;BME280;3249;42.690;23.260;2023-05-24T00:30:10;94081.88;;;10.63;100.00
6433;BME280;3249;42.690;23.260;2023-05-24T00:32:41;94089.63;;;10.86;100.00
6433;BME280;3249;42.690;23.260;2023-05-24T00:35:10;94071.50;;;10.69;100.00
6433;BME280;3249;42.690;23.260;2023-05-24T00:37:42;94072.72;;;10.90;100.00
6433;BME280;3249;42.690;23.260;2023-05-24T00:40:11;94074.94;;;10.75;100.00
6433;BME280;3249;42.690;23.260;2023-05-24T00:42:40;94069.41;;;10.48;100.00
6433;BME280;3249;42.690;23.260;2023-05-24T00:45:10;94068.34;;;10.26;100.00
6433;BME280;3249;42.690;23.260;2023-05-24T00:47:39;94063.38;;;10.13;100.00
6433;BME280;3249;42.690;23.260;2023-05-24T00:50:09;94070.88;;;10.15;100.00
6433;BME280;3249;42.690;23.260;2023-05-24T00:52:46;94075.84;;;10.28;100.00
6433;BME280;3249;42.690;23.260;2023-05-24T00:55:17;94073.91;;;10.12;100.00
6433;BME280;3249;42.690;23.260;2023-05-24T00:57:46;94068.31;;;10.15;100.00
6433;BME280;3249;42.690;23.260;2023-05-24T01:00:15;94064.34;;;10.30;100.00
6433;BME280;3249;42.690;23.260;2023-05-24T01:02:44;94068.97;;;10.40;100.00
6433;BME280;3249;42.690;23.260;2023-05-24T01:05:14;94073.78;;;10.48;100.00
6433;BME280;3249;42.690;23.260;2023-05-24T01:07:53;94080.06;;;10.52;100.00
6433;BME280;3249;42.690;23.260;2023-05-24T01:10:33;94081.50;;;10.48;100.00
6433;BME280;3249;42.690;23.260;2023-05-24T01:13:07;94082.19;;;10.55;100.00
6433;BME280;3249;42.690;23.260;2023-05-24T01:15:45;94083.19;;;10.54;100.00
6433;BME280;3249;42.690;23.260;2023-05-24T01:18:24;94085.38;;;10.39;100.00
6433;BME280;3249;42.690;23.260;2023-05-24T01:21:03;94084.31;;;9.99;100.00
6433;BME280;3249;42.690;23.260;2023-05-24T01:23:42;94078.31;;;9.87;100.00
6433;BME280;3249;42.690;23.260;2023-05-24T01:26:28;94086.09;;;9.98;100.00
6433;BME280;3249;42.690;23.260;2023-05-24T01:29:03;94076.22;;;9.84;100.00
6433;BME280;3249;42.690;23.260;2023-05-24T01:31:33;94085.97;;;9.75;100.00
6433;BME280;3249;42.690;23.260;2023-05-24T01:34:02;94083.34;;;9.64;100.00
6433;BME280;3249;42.690;23.260;2023-05-24T01:36:31;94090.13;;;9.58;100.00
6433;BME280;3249;42.690;23.260;2023-05-24T01:39:01;94095.84;;;9.78;100.00
6433;BME280;3249;42.690;23.260;2023-05-24T01:41:36;94088.19;;;9.90;100.00
6433;BME280;3249;42.690;23.260;2023-05-24T01:44:28;94086.41;;;9.90;100.00
6433;BME280;3249;42.690;23.260;2023-05-24T01:47:02;94082.88;;;10.03;100.00
6433;BME280;3249;42.690;23.260;2023-05-24T01:49:37;94084.41;;;10.10;100.00
6433;BME280;3249;42.690;23.260;2023-05-24T01:52:11;94060.09;;;9.88;100.00
6433;BME280;3249;42.690;23.260;2023-05-24T01:54:47;94090.63;;;9.85;100.00
6433;BME280;3249;42.690;23.260;2023-05-24T01:57:18;94071.63;;;9.86;100.00
6433;BME280;3249;42.690;23.260;2023-05-24T01:59:50;94081.19;;;9.97;100.00
6433;BME280;3249;42.690;23.260;2023-05-24T02:02:20;94076.47;;;9.94;100.00
6433;BME280;3249;42.690;23.260;2023-05-24T02:04:49;94086.66;;;10.00;100.00
6433;BME280;3249;42.690;23.260;2023-05-24T02:07:19;94079.91;;;10.06;100.00
6433;BME280;3249;42.690;23.260;2023-05-24T02:09:48;94073.53;;;10.08;100.00
6433;BME280;3249;42.690;23.260;2023-05-24T02:12:17;94070.91;;;9.79;100.00
6433;BME280;3249;42.690;23.260;2023-05-24T02:14:46;94073.19;;;9.50;100.00
6433;BME280;3249;42.690;23.260;2023-05-24T02:17:18;94071.63;;;9.49;100.00
6433;BME280;3249;42.690;23.260;2023-05-24T02:19:48;94067.22;;;9.38;100.00
6433;BME280;3249;42.690;23.260;2023-05-24T02:22:17;94061.06;;;9.57;100.00
6433;BME280;3249;42.690;23.260;2023-05-24T02:24:47;94060.16;;;9.70;100.00
6433;BME280;3249;42.690;23.260;2023-05-24T02:27:16;94064.53;;;9.81;100.00
6433;BME280;3249;42.690;23.260;2023-05-24T02:29:45;94033.03;;;9.74;100.00
6433;BME280;3249;42.690;23.260;2023-05-24T02:32:14;94063.59;;;9.94;100.00
6433;BME280;3249;42.690;23.260;2023-05-24T02:34:46;94048.22;;;9.57;100.00
6433;BME280;3249;42.690;23.260;2023-05-24T02:37:15;94060.72;;;9.36;100.00
6433;BME280;3249;42.690;23.260;2023-05-24T02:39:45;94060.19;;;9.27;100.00
6433;BME280;3249;42.690;23.260;2023-05-24T02:42:14;94062.41;;;9.24;100.00
6433;BME280;3249;42.690;23.260;2023-05-24T02:44:43;94069.78;;;9.38;100.00
6433;BME280;3249;42.690;23.260;2023-05-24T02:47:14;94067.22;;;9.38;100.00
6433;BME280;3249;42.690;23.260;2023-05-24T02:49:46;94051.88;;;9.50;100.00
6433;BME280;3249;42.690;23.260;2023-05-24T02:52:14;94064.38;;;9.65;100.00
6433;BME280;3249;42.690;23.260;2023-05-24T02:54:46;94065.84;;;9.72;100.00
6433;BME280;3249;42.690;23.260;2023-05-24T02:57:18;94060.91;;;9.71;100.00
6433;BME280;3249;42.690;23.260;2023-05-24T02:59:47;94039.03;;;9.32;100.00
6433;BME280;3249;42.690;23.260;2023-05-24T03:02:17;94071.19;;;9.71;100.00
6433;BME280;3249;42.690;23.260;2023-05-24T03:04:49;94075.97;;;9.85;100.00
6433;BME280;3249;42.690;23.260;2023-05-24T03:07:19;94070.81;;;9.85;100.00
6433;BME280;3249;42.690;23.260;2023-05-24T03:09:47;94083.31;;;10.00;100.00
6433;BME280;3249;42.690;23.260;2023-05-24T03:12:16;94093.38;;;10.19;100.00
6433;BME280;3249;42.690;23.260;2023-05-24T03:14:45;94085.97;;;10.11;100.00
6433;BME280;3249;42.690;23.260;2023-05-24T03:17:14;94089.09;;;10.13;100.00
6433;BME280;3249;42.690;23.260;2023-05-24T03:19:43;94090.72;;;10.26;100.00
6433;BME280;3249;42.690;23.260;2023-05-24T03:22:15;94096.16;;;10.47;100.00
6433;BME280;3249;42.690;23.260;2023-05-24T03:24:44;94093.75;;;10.75;100.00
6433;BME280;3249;42.690;23.260;2023-05-24T03:27:13;94096.13;;;10.77;100.00
6433;BME280;3249;42.690;23.260;2023-05-24T03:29:42;94093.59;;;10.59;100.00
6433;BME280;3249;42.690;23.260;2023-05-24T03:32:12;94104.31;;;11.08;100.00
6433;BME280;3249;42.690;23.260;2023-05-24T03:34:40;94110.63;;;11.47;100.00
6433;BME280;3249;42.690;23.260;2023-05-24T03:37:10;94103.78;;;11.64;100.00
6433;BME280;3249;42.690;23.260;2023-05-24T03:39:43;94117.53;;;11.92;100.00
6433;BME280;3249;42.690;23.260;2023-05-24T03:42:36;94115.03;;;12.09;100.00
6433;BME280;3249;42.690;23.260;2023-05-24T03:45:08;94107.13;;;11.53;100.00
6433;BME280;3249;42.690;23.260;2023-05-24T03:47:37;94114.84;;;11.99;100.00
6433;BME280;3249;42.690;23.260;2023-05-24T03:50:07;94104.53;;;12.27;100.00
6433;BME280;3249;42.690;23.260;2023-05-24T03:52:36;94116.13;;;12.69;100.00
6433;BME280;3249;42.690;23.260;2023-05-24T03:55:08;94125.44;;;12.98;100.00
6433;BME280;3249;42.690;23.260;2023-05-24T03:57:37;94120.50;;;13.46;100.00
6433;BME280;3249;42.690;23.260;2023-05-24T04:00:08;94128.00;;;13.85;100.00
6433;BME280;3249;42.690;23.260;2023-05-24T04:02:40;94133.19;;;14.24;100.00
6433;BME280;3249;42.690;23.260;2023-05-24T04:05:09;94109.88;;;14.45;100.00
6433;BME280;3249;42.690;23.260;2023-05-24T04:07:39;94122.00;;;14.66;100.00
6433;BME280;3249;42.690;23.260;2023-05-24T04:10:11;94130.03;;;13.62;100.00
6433;BME280;3249;42.690;23.260;2023-05-24T04:12:41;94132.44;;;14.28;100.00
6433;BME280;3249;42.690;23.260;2023-05-24T04:15:11;94140.09;;;14.61;100.00
6433;BME280;3249;42.690;23.260;2023-05-24T04:17:40;94141.47;;;14.74;100.00
6433;BME280;3249;42.690;23.260;2023-05-24T04:20:09;94132.81;;;14.37;100.00
6433;BME280;3249;42.690;23.260;2023-05-24T04:22:39;94130.25;;;14.20;100.00
6433;BME280;3249;42.690;23.260;2023-05-24T04:25:11;94125.91;;;14.04;100.00
6433;BME280;3249;42.690;23.260;2023-05-24T04:27:40;94125.75;;;13.89;100.00
6433;BME280;3249;42.690;23.260;2023-05-24T04:30:10;94133.25;;;13.69;100.00
6433;BME280;3249;42.690;23.260;2023-05-24T04:32:40;94134.47;;;14.05;100.00
6433;BME280;3249;42.690;23.260;2023-05-24T04:35:10;94130.94;;;13.89;100.00
6433;BME280;3249;42.690;23.260;2023-05-24T04:37:39;94132.75;;;13.72;100.00
6433;BME280;3249;42.690;23.260;2023-05-24T04:40:11;94137.84;;;13.67;100.00
6433;BME280;3249;42.690;23.260;2023-05-24T04:42:41;94103.78;;;13.37;100.00
6433;BME280;3249;42.690;23.260;2023-05-24T04:45:11;94144.69;;;13.56;100.00
6433;BME280;3249;42.690;23.260;2023-05-24T04:47:40;94146.19;;;13.69;100.00
6433;BME280;3249;42.690;23.260;2023-05-24T04:50:09;94152.84;;;13.65;100.00
6433;BME280;3249;42.690;23.260;2023-05-24T04:52:39;94152.00;;;13.59;100.00
6433;BME280;3249;42.690;23.260;2023-05-24T04:55:11;94149.09;;;13.94;100.00
6433;BME280;3249;42.690;23.260;2023-05-24T04:57:40;94148.94;;;13.84;100.00
6433;BME280;3249;42.690;23.260;2023-05-24T05:00:10;94152.09;;;13.86;100.00
6433;BME280;3249;42.690;23.260;2023-05-24T05:02:39;94155.16;;;14.21;100.00
6433;BME280;3249;42.690;23.260;2023-05-24T05:05:08;94164.53;;;14.27;100.00
6433;BME280;3249;42.690;23.260;2023-05-24T05:07:38;94160.19;;;14.11;100.00
6433;BME280;3249;42.690;23.260;2023-05-24T05:10:08;94165.34;;;14.28;100.00
6433;BME280;3249;42.690;23.260;2023-05-24T05:12:39;94171.91;;;14.35;100.00
6433;BME280;3249;42.690;23.260;2023-05-24T05:15:09;94170.38;;;14.61;100.00
6433;BME280;3249;42.690;23.260;2023-05-24T05:17:39;94145.88;;;14.47;100.00
6433;BME280;3249;42.690;23.260;2023-05-24T05:20:08;94170.00;;;14.74;100.00
6433;BME280;3249;42.690;23.260;2023-05-24T05:22:37;94179.13;;;14.33;100.00
6433;BME280;3249;42.690;23.260;2023-05-24T05:25:07;94172.78;;;14.46;100.00
6433;BME280;3249;42.690;23.260;2023-05-24T05:27:38;94181.69;;;14.76;100.00
6433;BME280;3249;42.690;23.260;2023-05-24T05:30:08;94172.78;;;14.46;100.00
6433;BME280;3249;42.690;23.260;2023-05-24T05:32:38;94172.16;;;14.60;100.00
6433;BME280;3249;42.690;23.260;2023-05-24T05:35:07;94176.41;;;14.45;100.00
6433;BME280;3249;42.690;23.260;2023-05-24T05:37:37;94170.34;;;14.82;100.00
6433;BME280;3249;42.690;23.260;2023-05-24T05:40:07;94159.94;;;14.77;100.00
6433;BME280;3249;42.690;23.260;2023-05-24T05:42:38;94174.31;;;15.16;100.00
6433;BME280;3249;42.690;23.260;2023-05-24T05:45:08;94175.94;;;15.27;100.00
6433;BME280;3249;42.690;23.260;2023-05-24T05:47:37;94186.03;;;15.50;100.00
6433;BME280;3249;42.690;23.260;2023-05-24T05:50:07;94183.84;;;15.37;100.00
6433;BME280;3249;42.690;23.260;2023-05-24T05:52:36;94177.72;;;15.48;100.00
6433;BME280;3249;42.690;23.260;2023-05-24T05:55:07;94183.41;;;15.45;100.00
6433;BME280;3249;42.690;23.260;2023-05-24T05:57:39;94186.59;;;15.57;100.00
6433;BME280;3249;42.690;23.260;2023-05-24T06:00:09;94192.59;;;15.58;100.00
6433;BME280;3249;42.690;23.260;2023-05-24T06:02:39;94192.00;;;15.87;100.00
6433;BME280;3249;42.690;23.260;2023-05-24T06:05:08;94193.72;;;15.72;100.00
6433;BME280;3249;42.690;23.260;2023-05-24T06:07:38;94196.41;;;15.50;100.00
6433;BME280;3249;42.690;23.260;2023-05-24T06:10:07;94193.78;;;15.45;100.00
6433;BME280;3249;42.690;23.260;2023-05-24T06:12:38;94205.72;;;15.83;100.00
6433;BME280;3249;42.690;23.260;2023-05-24T06:15:09;94201.53;;;16.18;100.00
6433;BME280;3249;42.690;23.260;2023-05-24T06:17:38;94204.47;;;16.37;100.00
6433;BME280;3249;42.690;23.260;2023-05-24T06:20:10;94214.78;;;16.73;100.00
6433;BME280;3249;42.690;23.260;2023-05-24T06:22:42;94209.94;;;16.97;100.00
6433;BME280;3249;42.690;23.260;2023-05-24T06:25:11;94209.97;;;17.12;100.00
6433;BME280;3249;42.690;23.260;2023-05-24T06:27:46;94201.91;;;17.13;100.00
6433;BME280;3249;42.690;23.260;2023-05-24T06:30:16;94207.13;;;17.23;100.00
6433;BME280;3249;42.690;23.260;2023-05-24T06:32:45;94205.03;;;17.20;98.54
6433;BME280;3249;42.690;23.260;2023-05-24T06:35:14;94206.84;;;17.20;100.00
6433;BME280;3249;42.690;23.260;2023-05-24T06:37:43;94198.28;;;17.19;100.00
6433;BME280;3249;42.690;23.260;2023-05-24T06:40:12;94177.19;;;17.11;98.54
6433;BME280;3249;42.690;23.260;2023-05-24T06:42:41;94211.56;;;17.38;97.75
6433;BME280;3249;42.690;23.260;2023-05-24T06:45:13;94210.81;;;17.52;96.61
6433;BME280;3249;42.690;23.260;2023-05-24T06:47:42;94206.66;;;17.71;94.71
6433;BME280;3249;42.690;23.260;2023-05-24T06:50:11;94204.31;;;17.75;92.92
6433;BME280;3249;42.690;23.260;2023-05-24T06:52:41;94207.13;;;17.23;99.13
6433;BME280;3249;42.690;23.260;2023-05-24T06:55:10;94189.50;;;17.55;94.83
6433;BME280;3249;42.690;23.260;2023-05-24T06:57:39;94208.22;;;17.87;90.14
6433;BME280;3249;42.690;23.260;2023-05-24T07:00:08;94199.91;;;17.90;92.16
6433;BME280;3249;42.690;23.260;2023-05-24T07:02:41;94205.81;;;18.26;90.71
6433;BME280;3249;42.690;23.260;2023-05-24T07:05:10;94205.34;;;17.99;91.55
6433;BME280;3249;42.690;23.260;2023-05-24T07:07:42;94196.44;;;18.20;90.55
6433;BME280;3249;42.690;23.260;2023-05-24T07:10:12;94200.16;;;17.89;96.54
6433;BME280;3249;42.690;23.260;2023-05-24T07:12:41;94191.56;;;17.83;100.00
6433;BME280;3249;42.690;23.260;2023-05-24T07:15:10;94198.28;;;18.20;99.89
6433;BME280;3249;42.690;23.260;2023-05-24T07:17:41;94202.13;;;18.42;97.40
6433;BME280;3249;42.690;23.260;2023-05-24T07:20:10;94194.53;;;18.56;98.03
6433;BME280;3249;42.690;23.260;2023-05-24T07:22:41;94196.81;;;18.72;98.45
6433;BME280;3249;42.690;23.260;2023-05-24T07:25:09;94171.16;;;18.31;100.00
6433;BME280;3249;42.690;23.260;2023-05-24T07:27:39;94197.38;;;18.59;100.00
6433;BME280;3249;42.690;23.260;2023-05-24T07:30:08;94196.59;;;18.64;96.95
6433;BME280;3249;42.690;23.260;2023-05-24T07:32:37;94206.38;;;18.92;96.59
6433;BME280;3249;42.690;23.260;2023-05-24T07:35:10;94208.03;;;19.31;92.43
6433;BME280;3249;42.690;23.260;2023-05-24T07:37:41;94187.44;;;19.20;88.20
6433;BME280;3249;42.690;23.260;2023-05-24T07:40:10;94209.00;;;18.87;88.41
6433;BME280;3249;42.690;23.260;2023-05-24T07:42:40;94206.78;;;19.14;92.50
6433;BME280;3249;42.690;23.260;2023-05-24T07:45:09;94211.09;;;19.38;82.70
6433;BME280;3249;42.690;23.260;2023-05-24T07:47:39;94220.59;;;19.63;79.91
6433;BME280;3249;42.690;23.260;2023-05-24T07:50:11;94216.38;;;19.67;81.65
6433;BME280;3249;42.690;23.260;2023-05-24T07:52:40;94213.97;;;19.37;80.66
6433;BME280;3249;42.690;23.260;2023-05-24T07:55:10;94206.34;;;19.45;79.50
6433;BME280;3249;42.690;23.260;2023-05-24T07:57:39;94204.91;;;19.19;79.28
6433;BME280;3249;42.690;23.260;2023-05-24T08:00:09;94189.66;;;18.98;79.49
6433;BME280;3249;42.690;23.260;2023-05-24T08:02:39;94205.94;;;19.23;76.06
6433;BME280;3249;42.690;23.260;2023-05-24T08:05:14;94210.25;;;19.48;71.33
6433;BME280;3249;42.690;23.260;2023-05-24T08:07:43;94210.50;;;19.80;67.72
6433;BME280;3249;42.690;23.260;2023-05-24T08:10:12;94216.91;;;19.97;63.73
6433;BME280;3249;42.690;23.260;2023-05-24T08:12:41;94210.28;;;20.10;64.73
6433;BME280;3249;42.690;23.260;2023-05-24T08:15:11;94214.13;;;20.17;65.20
6433;BME280;3249;42.690;23.260;2023-05-24T08:17:40;94210.38;;;20.28;62.84
6433;BME280;3249;42.690;23.260;2023-05-24T08:20:09;94208.97;;;20.36;59.96
6433;BME280;3249;42.690;23.260;2023-05-24T08:22:42;94198.28;;;20.04;60.77
6433;BME280;3249;42.690;23.260;2023-05-24T08:25:13;94203.34;;;20.24;62.57
6433;BME280;3249;42.690;23.260;2023-05-24T08:27:42;94206.81;;;20.14;59.86
6433;BME280;3249;42.690;23.260;2023-05-24T08:30:12;94207.75;;;20.52;55.96
6433;BME280;3249;42.690;23.260;2023-05-24T08:32:41;94214.44;;;20.63;54.09
6433;BME280;3249;42.690;23.260;2023-05-24T08:35:10;94219.28;;;20.98;49.32
6433;BME280;3249;42.690;23.260;2023-05-24T08:37:42;94219.81;;;20.95;46.31
6433;BME280;3249;42.690;23.260;2023-05-24T08:40:12;94220.16;;;20.88;41.54
6433;BME280;3249;42.690;23.260;2023-05-24T08:42:41;94212.25;;;20.70;38.93
6433;BME280;3249;42.690;23.260;2023-05-24T08:45:11;94222.28;;;20.39;41.51
6433;BME280;3249;42.690;23.260;2023-05-24T08:47:40;94219.09;;;20.19;39.90
6433;BME280;3249;42.690;23.260;2023-05-24T08:50:10;94215.91;;;20.50;38.39
6433;BME280;3249;42.690;23.260;2023-05-24T08:52:42;94213.91;;;20.84;38.47
6433;BME280;3249;42.690;23.260;2023-05-24T08:55:13;94220.50;;;20.82;39.54
6433;BME280;3249;42.690;23.260;2023-05-24T08:57:44;94220.28;;;21.20;39.97
6433;BME280;3249;42.690;23.260;2023-05-24T09:00:14;94210.53;;;21.26;39.48
6433;BME280;3249;42.690;23.260;2023-05-24T09:02:44;94219.38;;;21.30;38.67
6433;BME280;3249;42.690;23.260;2023-05-24T09:05:15;94217.19;;;21.18;39.02
6433;BME280;3249;42.690;23.260;2023-05-24T09:07:49;94215.66;;;21.49;38.63
6433;BME280;3249;42.690;23.260;2023-05-24T09:10:19;94216.72;;;21.67;37.91
6433;BME280;3249;42.690;23.260;2023-05-24T09:12:54;94221.78;;;21.45;35.23
6433;BME280;3249;42.690;23.260;2023-05-24T09:15:23;94214.41;;;21.47;35.57
6433;BME280;3249;42.690;23.260;2023-05-24T09:18:05;94220.03;;;21.91;35.76
6433;BME280;3249;42.690;23.260;2023-05-24T09:20:34;94221.00;;;22.14;35.23
6433;BME280;3249;42.690;23.260;2023-05-24T09:23:06;94217.78;;;22.30;36.32
6433;BME280;3249;42.690;23.260;2023-05-24T09:25:35;94220.91;;;22.32;34.74
6433;BME280;3249;42.690;23.260;2023-05-24T09:28:06;94208.22;;;22.53;34.98
6433;BME280;3249;42.690;23.260;2023-05-24T09:30:35;94213.84;;;22.46;34.14
6433;BME280;3249;42.690;23.260;2023-05-24T09:33:06;94211.00;;;22.29;34.13
6433;BME280;3249;42.690;23.260;2023-05-24T09:35:36;94222.38;;;22.38;31.85
6433;BME280;3249;42.690;23.260;2023-05-24T09:38:15;94193.78;;;22.10;31.83
6433;BME280;3249;42.690;23.260;2023-05-24T09:40:45;94210.84;;;22.07;34.20
6433;BME280;3249;42.690;23.260;2023-05-24T09:43:15;94216.81;;;22.26;33.44
6433;BME280;3249;42.690;23.260;2023-05-24T09:45:45;94219.56;;;22.35;32.39
6433;BME280;3249;42.690;23.260;2023-05-24T09:48:15;94215.91;;;22.49;29.34
6433;BME280;3249;42.690;23.260;2023-05-24T09:50:57;94212.59;;;22.57;29.83
6433;BME280;3249;42.690;23.260;2023-05-24T09:53:29;94215.91;;;22.63;29.67
6433;BME280;3249;42.690;23.260;2023-05-24T09:56:04;94209.81;;;22.35;32.11
6433;BME280;3249;42.690;23.260;2023-05-24T09:58:35;94217.03;;;22.30;28.57
6433;BME280;3249;42.690;23.260;2023-05-24T10:01:04;94213.78;;;22.51;28.92
6433;BME280;3249;42.690;23.260;2023-05-24T10:03:35;94209.59;;;22.77;29.19
6433;BME280;3249;42.690;23.260;2023-05-24T10:06:06;94206.09;;;22.68;30.44
6433;BME280;3249;42.690;23.260;2023-05-24T10:08:39;94206.97;;;22.77;31.49
6433;BME280;3249;42.690;23.260;2023-05-24T10:11:08;94200.31;;;22.39;31.86
6433;BME280;3249;42.690;23.260;2023-05-24T10:13:36;94198.63;;;22.48;33.10
6433;BME280;3249;42.690;23.260;2023-05-24T10:16:08;94178.44;;;22.30;31.01
6433;BME280;3249;42.690;23.260;2023-05-24T10:18:37;94189.66;;;22.76;30.88
6433;BME280;3249;42.690;23.260;2023-05-24T10:21:06;94197.03;;;23.01;31.03
6433;BME280;3249;42.690;23.260;2023-05-24T10:23:38;94181.25;;;23.28;30.73
6433;BME280;3249;42.690;23.260;2023-05-24T10:26:09;94185.63;;;23.55;30.78
6433;BME280;3249;42.690;23.260;2023-05-24T10:28:43;94195.66;;;23.53;29.46
6433;BME280;3249;42.690;23.260;2023-05-24T10:31:17;94196.31;;;23.58;28.74
6433;BME280;3249;42.690;23.260;2023-05-24T10:33:47;94189.59;;;23.30;27.76
6433;BME280;3249;42.690;23.260;2023-05-24T10:36:17;94188.25;;;23.33;26.44
6433;BME280;3249;42.690;23.260;2023-05-24T10:38:49;94190.03;;;23.46;25.87
6433;BME280;3249;42.690;23.260;2023-05-24T10:41:19;94189.28;;;23.67;25.97
6433;BME280;3249;42.690;23.260;2023-05-24T10:43:48;94192.56;;;23.73;26.93
6433;BME280;3249;42.690;23.260;2023-05-24T10:46:19;94185.41;;;23.16;28.31
6433;BME280;3249;42.690;23.260;2023-05-24T10:48:59;94180.03;;;22.72;28.12
6433;BME280;3249;42.690;23.260;2023-05-24T10:51:35;94175.69;;;22.67;28.07
6433;BME280;3249;42.690;23.260;2023-05-24T10:54:17;94172.78;;;23.18;28.32
6433;BME280;3249;42.690;23.260;2023-05-24T10:56:48;94161.97;;;23.19;28.14
6433;BME280;3249;42.690;23.260;2023-05-24T10:59:22;94167.72;;;23.57;26.42
6433;BME280;3249;42.690;23.260;2023-05-24T11:01:54;94161.53;;;23.83;26.08
6433;BME280;3249;42.690;23.260;2023-05-24T11:04:24;94155.69;;;23.86;27.20
6433;BME280;3249;42.690;23.260;2023-05-24T11:06:54;94158.56;;;24.29;27.36
6433;BME280;3249;42.690;23.260;2023-05-24T11:09:28;94164.47;;;24.34;27.28
6433;BME280;3249;42.690;23.260;2023-05-24T11:12:01;94157.13;;;24.14;27.64
6433;BME280;3249;42.690;23.260;2023-05-24T11:14:35;94150.56;;;23.59;28.38
6433;BME280;3249;42.690;23.260;2023-05-24T11:17:06;94157.53;;;23.86;28.25
6433;BME280;3249;42.690;23.260;2023-05-24T11:19:36;94133.00;;;23.68;29.10
6433;BME280;3249;42.690;23.260;2023-05-24T11:22:06;94151.03;;;23.39;28.50
6433;BME280;3249;42.690;23.260;2023-05-24T11:24:39;94155.22;;;23.62;27.47
6433;BME280;3249;42.690;23.260;2023-05-24T11:27:11;94153.13;;;23.51;29.58
6433;BME280;3249;42.690;23.260;2023-05-24T11:29:41;94157.97;;;23.35;29.66
6433;BME280;3249;42.690;23.260;2023-05-24T11:32:14;94143.34;;;23.07;29.30
6433;BME280;3249;42.690;23.260;2023-05-24T11:34:44;94134.50;;;23.39;28.52
6433;BME280;3249;42.690;23.260;2023-05-24T11:37:15;94141.84;;;23.28;28.54
6433;BME280;3249;42.690;23.260;2023-05-24T11:39:50;94144.28;;;23.25;30.92
6433;BME280;3249;42.690;23.260;2023-05-24T11:42:20;94137.81;;;22.95;28.60
6433;BME280;3249;42.690;23.260;2023-05-24T11:44:50;94142.97;;;22.87;28.47
6433;BME280;3249;42.690;23.260;2023-05-24T11:47:20;94135.56;;;22.89;28.84
6433;BME280;3249;42.690;23.260;2023-05-24T11:49:50;94136.88;;;23.13;29.47
6433;BME280;3249;42.690;23.260;2023-05-24T11:52:20;94128.53;;;23.47;27.66
6433;BME280;3249;42.690;23.260;2023-05-24T11:54:51;94125.66;;;23.57;27.75
6433;BME280;3249;42.690;23.260;2023-05-24T11:57:24;94124.94;;;23.65;28.38
6433;BME280;3249;42.690;23.260;2023-05-24T11:59:55;94123.81;;;23.35;29.14
6433;BME280;3249;42.690;23.260;2023-05-24T12:02:28;94121.34;;;23.39;29.54
6433;BME280;3249;42.690;23.260;2023-05-24T12:05:05;94130.28;;;23.82;28.43
6433;BME280;3249;42.690;23.260;2023-05-24T12:07:36;94109.91;;;23.87;27.12
6433;BME280;3249;42.690;23.260;2023-05-24T12:10:09;94131.09;;;24.13;27.35
6433;BME280;3249;42.690;23.260;2023-05-24T12:12:42;94130.06;;;23.92;27.49
6433;BME280;3249;42.690;23.260;2023-05-24T12:15:11;94130.69;;;24.28;27.79
6433;BME280;3249;42.690;23.260;2023-05-24T12:17:45;94123.72;;;24.32;27.30
6433;BME280;3249;42.690;23.260;2023-05-24T12:20:15;94123.19;;;24.52;27.24
6433;BME280;3249;42.690;23.260;2023-05-24T12:22:47;94113.28;;;24.10;26.86
6433;BME280;3249;42.690;23.260;2023-05-24T12:25:21;94088.38;;;24.07;27.17
6433;BME280;3249;42.690;23.260;2023-05-24T12:27:52;94109.06;;;24.00;27.28
6433;BME280;3249;42.690;23.260;2023-05-24T12:30:21;94080.50;;;24.16;27.03
6433;BME280;3249;42.690;23.260;2023-05-24T12:32:51;94106.47;;;24.56;26.71
6433;BME280;3249;42.690;23.260;2023-05-24T12:35:21;94113.06;;;24.84;25.21
6433;BME280;3249;42.690;23.260;2023-05-24T12:37:57;94101.16;;;25.04;25.51
6433;BME280;3249;42.690;23.260;2023-05-24T12:40:32;94105.81;;;25.15;26.51
6433;BME280;3249;42.690;23.260;2023-05-24T12:43:03;94064.94;;;24.36;26.04
6433;BME280;3249;42.690;23.260;2023-05-24T12:45:32;94100.19;;;24.74;26.65
6433;BME280;3249;42.690;23.260;2023-05-24T12:48:02;94104.72;;;25.16;25.62
6433;BME280;3249;42.690;23.260;2023-05-24T12:50:30;94104.41;;;25.43;24.08
6433;BME280;3249;42.690;23.260;2023-05-24T12:52:59;94101.63;;;25.65;23.75
6433;BME280;3249;42.690;23.260;2023-05-24T12:55:31;94099.75;;;25.40;24.20
6433;BME280;3249;42.690;23.260;2023-05-24T12:58:01;94091.84;;;24.98;26.30
6433;BME280;3249;42.690;23.260;2023-05-24T13:00:32;94096.50;;;25.09;26.06
6433;BME280;3249;42.690;23.260;2023-05-24T13:03:01;94084.00;;;24.42;25.65
6433;BME280;3249;42.690;23.260;2023-05-24T13:05:30;94093.84;;;24.19;24.68
6433;BME280;3249;42.690;23.260;2023-05-24T13:07:59;94087.81;;;24.27;24.81
6433;BME280;3249;42.690;23.260;2023-05-24T13:10:31;94092.44;;;24.69;25.17
6433;BME280;3249;42.690;23.260;2023-05-24T13:13:00;94083.25;;;24.58;26.62
6433;BME280;3249;42.690;23.260;2023-05-24T13:15:29;94072.66;;;24.41;27.32
6433;BME280;3249;42.690;23.260;2023-05-24T13:17:58;94077.72;;;24.85;25.92
6433;BME280;3249;42.690;23.260;2023-05-24T13:20:28;94087.81;;;25.00;25.00
6433;BME280;3249;42.690;23.260;2023-05-24T13:22:56;94081.31;;;25.06;24.63
6433;BME280;3249;42.690;23.260;2023-05-24T13:25:26;94084.56;;;25.12;25.00